Time;durP1;ratioP1;P1;durP2;ratioP2;P2;SDS_P1;SDS_P2;PMS_P1;PMS_P2;Temp;Humidity;BMP_temperature;BMP_pressure;BME280_temperature;BME280_humidity;BME280_pressure;Samples;Min_cycle;Max_cycle;Signal;HPM_P1;HPM_P2
2022/07/12 00:02:02;;;;;;;5.28;2.65;;;12.60;99.90;;;;;;5115049;28;20035;-53
2022/07/12 00:04:28;;;;;;;6.55;2.70;;;12.60;99.90;;;;;;5115344;28;20024;-53
2022/07/12 00:06:54;;;;;;;5.43;2.88;;;12.70;99.90;;;;;;5115395;28;20027;-52
2022/07/12 00:09:20;;;;;;;6.18;2.80;;;12.70;99.90;;;;;;5115244;28;20016;-52
2022/07/12 00:11:46;;;;;;;4.97;2.60;;;12.70;99.90;;;;;;5115270;28;20116;-52
2022/07/12 00:14:13;;;;;;;9.77;3.03;;;12.60;99.90;;;;;;5115121;28;20034;-52
2022/07/12 00:16:39;;;;;;;5.40;2.45;;;12.60;99.90;;;;;;5115119;28;20111;-52
2022/07/12 00:19:05;;;;;;;8.25;2.60;;;12.60;99.90;;;;;;5114973;28;20104;-52
2022/07/12 00:21:31;;;;;;;10.27;4.72;;;12.70;99.90;;;;;;5115052;28;20032;-53
2022/07/12 00:23:57;;;;;;;6.95;3.20;;;12.60;99.90;;;;;;5114895;28;20032;-52
2022/07/12 00:26:23;;;;;;;6.55;2.72;;;12.60;99.90;;;;;;5115102;28;20034;-52
2022/07/12 00:28:50;;;;;;;5.78;2.63;;;12.50;99.90;;;;;;5115020;28;20030;-53
2022/07/12 00:31:16;;;;;;;7.55;2.55;;;12.50;99.90;;;;;;5115251;28;20024;-53
2022/07/12 00:33:42;;;;;;;4.25;2.53;;;12.40;99.90;;;;;;5114945;28;20396;-52
2022/07/12 00:36:08;;;;;;;5.47;2.25;;;12.50;99.90;;;;;;5115008;28;20058;-53
2022/07/12 00:38:34;;;;;;;8.43;2.92;;;12.40;99.90;;;;;;5114850;28;20024;-52
2022/07/12 00:41:00;;;;;;;6.00;2.78;;;12.50;99.90;;;;;;5114615;28;20039;-52
2022/07/12 00:43:26;;;;;;;9.60;3.72;;;12.40;99.90;;;;;;5115173;28;20023;-52
2022/07/12 00:45:52;;;;;;;12.75;4.30;;;12.40;99.90;;;;;;5114924;28;20034;-53
2022/07/12 00:48:19;;;;;;;12.02;5.32;;;12.40;99.90;;;;;;5114765;28;20031;-53
2022/07/12 00:50:48;;;;;;;11.48;5.00;;;12.40;99.90;;;;;;5114786;28;20048;-52
2022/07/12 00:53:18;;;;;;;14.23;4.85;;;12.30;99.90;;;;;;5114666;28;20039;-53
2022/07/12 00:55:44;;;;;;;5.40;3.30;;;12.20;99.90;;;;;;5114655;28;20069;-53
2022/07/12 00:58:10;;;;;;;6.15;2.90;;;12.20;99.90;;;;;;5114741;28;20020;-52
2022/07/12 01:00:36;;;;;;;7.07;2.17;;;12.20;99.90;;;;;;5114715;28;20023;-53
2022/07/12 01:03:03;;;;;;;8.10;2.65;;;12.30;99.90;;;;;;5114823;28;20038;-52
2022/07/12 01:05:30;;;;;;;6.75;2.80;;;12.30;99.90;;;;;;5114669;28;20039;-52
2022/07/12 01:07:56;;;;;;;5.47;2.58;;;12.10;99.90;;;;;;5114576;28;20080;-52
2022/07/12 01:10:23;;;;;;;4.90;2.35;;;12.00;99.90;;;;;;5114821;28;20015;-53
2022/07/12 01:12:50;;;;;;;5.68;2.70;;;12.00;99.90;;;;;;5114980;28;20062;-53
2022/07/12 01:15:16;;;;;;;4.50;2.80;;;12.10;99.90;;;;;;5114490;28;20108;-52
2022/07/12 01:17:44;;;;;;;5.40;2.58;;;12.20;99.90;;;;;;5114243;28;20048;-53
2022/07/12 01:20:11;;;;;;;6.90;2.60;;;12.30;99.90;;;;;;5114677;28;20058;-53
2022/07/12 01:22:43;;;;;;;5.53;1.70;;;12.30;99.90;;;;;;5114416;28;20027;-53
2022/07/12 01:25:09;;;;;;;5.55;1.83;;;12.30;99.90;;;;;;5114459;28;20028;-52
2022/07/12 01:27:38;;;;;;;6.88;2.15;;;12.40;99.90;;;;;;5114518;28;20471;-52
2022/07/12 01:30:04;;;;;;;4.60;2.20;;;12.40;99.90;;;;;;5116655;28;20461;-53
2022/07/12 01:32:31;;;;;;;6.35;2.60;;;12.40;99.90;;;;;;5118204;28;20024;-52
2022/07/12 01:35:03;;;;;;;3.85;2.00;;;12.40;99.90;;;;;;5118184;28;20028;-52
2022/07/12 01:37:33;;;;;;;4.18;2.13;;;12.30;99.90;;;;;;5118018;28;20035;-52
2022/07/12 01:40:00;;;;;;;6.55;2.35;;;12.30;99.90;;;;;;5118048;28;20545;-52
2022/07/12 01:42:28;;;;;;;6.78;2.10;;;12.20;99.90;;;;;;5117949;28;20110;-52
2022/07/12 01:44:55;;;;;;;4.25;2.00;;;12.20;99.90;;;;;;5117986;28;20461;-52
2022/07/12 01:47:25;;;;;;;3.38;1.90;;;12.10;99.90;;;;;;5117918;28;20471;-52
2022/07/12 01:49:51;;;;;;;6.18;2.30;;;12.20;99.90;;;;;;5118069;28;20477;-53
2022/07/12 01:52:18;;;;;;;3.55;2.00;;;12.20;99.90;;;;;;5117758;28;20080;-52
2022/07/12 01:54:45;;;;;;;5.03;2.60;;;12.20;99.90;;;;;;5117670;28;20023;-53
2022/07/12 01:57:11;;;;;;;3.45;1.92;;;12.30;99.90;;;;;;5117789;28;20385;-52
2022/07/12 01:59:39;;;;;;;6.88;2.22;;;12.30;99.90;;;;;;5117666;28;20023;-52
2022/07/12 02:02:05;;;;;;;5.63;2.40;;;12.20;99.90;;;;;;5117793;28;20103;-53
2022/07/12 02:04:31;;;;;;;6.45;2.67;;;12.20;99.90;;;;;;5117731;28;20051;-52
2022/07/12 02:06:57;;;;;;;6.65;2.58;;;12.20;99.90;;;;;;5117575;28;20016;-53
2022/07/12 02:09:23;;;;;;;6.70;2.17;;;12.20;99.90;;;;;;5117627;28;20023;-52
2022/07/12 02:11:49;;;;;;;4.13;1.88;;;12.20;99.90;;;;;;5117612;28;20034;-53
2022/07/12 02:14:16;;;;;;;3.83;2.13;;;12.10;99.90;;;;;;5117360;28;20019;-53
2022/07/12 02:16:43;;;;;;;5.38;2.00;;;12.20;99.90;;;;;;5117560;28;20031;-53
2022/07/12 02:19:11;;;;;;;3.35;1.80;;;12.10;99.90;;;;;;5098991;28;20048;-53
2022/07/12 02:21:37;;;;;;;5.15;2.45;;;12.10;99.90;;;;;;5117221;28;20114;-53
2022/07/12 02:24:04;;;;;;;5.38;2.08;;;12.10;99.90;;;;;;5117320;28;20023;-53
2022/07/12 02:26:32;;;;;;;5.80;2.50;;;12.00;99.90;;;;;;5117224;28;20089;-52
2022/07/12 02:28:58;;;;;;;4.13;2.00;;;11.90;99.90;;;;;;5117292;28;20019;-53
2022/07/12 02:31:24;;;;;;;5.00;2.40;;;11.90;99.90;;;;;;5117102;28;20027;-53
2022/07/12 02:33:49;;;;;;;3.15;2.00;;;11.90;99.90;;;;;;5117382;28;20064;-53
2022/07/12 02:36:16;;;;;;;8.30;2.05;;;11.90;99.90;;;;;;5116854;28;20040;-53
2022/07/12 02:38:42;;;;;;;5.00;2.00;;;11.80;99.90;;;;;;5116779;28;20077;-52
2022/07/12 02:41:08;;;;;;;4.47;1.80;;;11.80;99.90;;;;;;5115708;28;20023;-52
2022/07/12 02:43:34;;;;;;;2.90;1.83;;;11.80;99.90;;;;;;5116933;28;20031;-53
2022/07/12 02:46:26;;;;;;;2.63;1.75;;;11.80;99.90;;;;;;5116918;28;20142;-53
2022/07/12 02:48:52;;;;;;;5.00;2.45;;;11.80;99.90;;;;;;5114554;28;20507;-53
2022/07/12 02:51:18;;;;;;;5.32;2.15;;;11.70;99.90;;;;;;5116791;28;20035;-53
2022/07/12 02:53:44;;;;;;;3.63;2.03;;;11.60;99.90;;;;;;5116612;28;20116;-52
2022/07/12 02:56:11;;;;;;;7.97;2.25;;;11.60;99.90;;;;;;5116825;28;20028;-52
2022/07/12 02:58:37;;;;;;;6.40;2.85;;;11.50;99.90;;;;;;5116707;28;20024;-52
2022/07/12 03:01:03;;;;;;;6.05;2.38;;;11.50;99.90;;;;;;5116576;28;20034;-52
2022/07/12 03:03:30;;;;;;;5.30;2.30;;;11.50;99.90;;;;;;5116686;28;20024;-52
2022/07/12 03:05:56;;;;;;;3.50;2.20;;;11.50;99.90;;;;;;5116483;28;20492;-53
2022/07/12 03:08:22;;;;;;;5.15;2.20;;;11.70;99.90;;;;;;5116339;28;20081;-53
2022/07/12 03:10:48;;;;;;;7.55;2.78;;;11.60;99.90;;;;;;5116602;28;20058;-53
2022/07/12 03:13:14;;;;;;;6.47;2.55;;;11.50;99.90;;;;;;5116389;28;20028;-53
2022/07/12 03:15:40;;;;;;;6.53;2.58;;;11.40;99.90;;;;;;5116295;28;20393;-53
2022/07/12 03:18:06;;;;;;;5.28;2.28;;;11.40;99.90;;;;;;5116018;28;20096;-52
2022/07/12 03:20:32;;;;;;;4.03;2.17;;;11.60;99.90;;;;;;5116073;28;20043;-52
2022/07/12 03:22:58;;;;;;;6.00;2.40;;;11.60;99.90;;;;;;5115993;28;20201;-53
2022/07/12 03:25:24;;;;;;;3.45;2.30;;;11.60;99.90;;;;;;5116313;28;20023;-53
2022/07/12 03:27:51;;;;;;;3.50;2.17;;;11.40;99.90;;;;;;5116128;28;20020;-53
2022/07/12 03:30:17;;;;;;;4.32;2.30;;;11.30;99.90;;;;;;5116083;28;20034;-52
2022/07/12 03:32:44;;;;;;;11.75;2.40;;;11.30;99.90;;;;;;5116066;28;20039;-53
2022/07/12 03:35:10;;;;;;;6.13;2.85;;;11.30;99.90;;;;;;5115954;28;20038;-53
2022/07/12 03:37:49;;;;;;;3.58;2.28;;;11.30;99.90;;;;;;5115740;28;20088;-53
2022/07/12 03:40:16;;;;;;;5.72;2.65;;;11.20;99.90;;;;;;5115868;28;20027;-53
2022/07/12 03:42:43;;;;;;;5.22;2.70;;;11.10;99.90;;;;;;5115757;28;20023;-53
2022/07/12 03:45:10;;;;;;;5.20;2.50;;;11.20;99.90;;;;;;5115664;28;20469;-52
2022/07/12 03:47:37;;;;;;;5.53;2.95;;;11.20;99.90;;;;;;5115642;28;20032;-53
2022/07/12 03:50:05;;;;;;;4.68;2.22;;;11.20;99.90;;;;;;5115618;28;20095;-53
2022/07/12 03:52:33;;;;;;;5.65;2.80;;;11.20;99.90;;;;;;5115163;28;20138;-53
2022/07/12 03:54:59;;;;;;;8.77;2.60;;;11.30;99.90;;;;;;5115494;28;20097;-53
2022/07/12 03:57:26;;;;;;;7.00;2.70;;;11.40;99.90;;;;;;5115597;28;20043;-53
2022/07/12 03:59:52;;;;;;;5.50;2.45;;;11.40;99.90;;;;;;5097191;28;20051;-52
2022/07/12 04:02:18;;;;;;;4.15;2.15;;;11.40;99.90;;;;;;5115387;28;20055;-53
2022/07/12 04:04:44;;;;;;;5.65;2.13;;;11.50;99.90;;;;;;5115239;28;20053;-53
2022/07/12 04:07:10;;;;;;;2.85;2.40;;;11.50;99.90;;;;;;5115085;28;20354;-52
2022/07/12 04:09:36;;;;;;;7.88;2.90;;;11.50;99.90;;;;;;5115577;28;20030;-52
2022/07/12 04:12:03;;;;;;;6.32;2.65;;;11.60;99.90;;;;;;5115235;28;20080;-53
2022/07/12 04:14:29;;;;;;;5.05;2.60;;;11.70;99.90;;;;;;5115063;28;20469;-53
2022/07/12 04:16:56;;;;;;;6.72;2.50;;;11.80;99.90;;;;;;5115246;28;20110;-53
2022/07/12 04:19:25;;;;;;;7.00;2.80;;;11.70;99.90;;;;;;5114977;28;20101;-52
2022/07/12 04:21:51;;;;;;;8.77;3.58;;;11.80;99.90;;;;;;5115111;28;20028;-53
2022/07/12 04:24:17;;;;;;;10.20;2.92;;;11.70;99.90;;;;;;5114900;28;20084;-53
2022/07/12 04:26:43;;;;;;;10.75;3.17;;;11.80;99.90;;;;;;5115067;28;20035;-53
2022/07/12 04:29:08;;;;;;;9.50;3.28;;;11.80;99.90;;;;;;5114900;28;20023;-53
2022/07/12 04:31:34;;;;;;;13.18;3.50;;;11.90;99.90;;;;;;5114876;28;20473;-53
2022/07/12 04:34:00;;;;;;;12.57;3.90;;;12.00;99.90;;;;;;5114478;28;20488;-53
2022/07/12 04:36:26;;;;;;;11.05;3.55;;;12.10;99.90;;;;;;5114876;28;20469;-52
2022/07/12 04:38:52;;;;;;;11.40;3.70;;;12.20;99.90;;;;;;5114963;28;20534;-53
2022/07/12 04:41:18;;;;;;;14.77;4.82;;;12.30;99.90;;;;;;5114679;28;20034;-53
2022/07/12 04:43:44;;;;;;;16.38;5.63;;;12.50;99.90;;;;;;5114713;28;20070;-53
2022/07/12 04:46:10;;;;;;;12.27;4.38;;;12.60;99.90;;;;;;5114883;28;20053;-53
2022/07/12 04:48:37;;;;;;;20.77;6.25;;;12.80;99.90;;;;;;5114682;28;20354;-53
2022/07/12 04:51:03;;;;;;;14.65;4.57;;;12.90;99.90;;;;;;5114651;28;20027;-53
2022/07/12 04:53:30;;;;;;;13.93;4.03;;;13.00;99.90;;;;;;5113761;28;20094;-53
2022/07/12 04:55:57;;;;;;;13.90;4.60;;;13.10;99.90;;;;;;5114602;28;20023;-53
2022/07/12 04:58:23;;;;;;;12.75;4.78;;;13.20;99.90;;;;;;5114739;28;20046;-53
2022/07/12 05:00:50;;;;;;;16.95;5.43;;;13.20;99.90;;;;;;5114622;28;20473;-53
2022/07/12 05:03:16;;;;;;;12.50;4.55;;;13.20;99.90;;;;;;5114518;28;20027;-53
2022/07/12 05:05:42;;;;;;;13.60;4.93;;;13.40;99.90;;;;;;5117958;28;20019;-53
2022/07/12 05:08:08;;;;;;;11.65;3.78;;;13.50;99.90;;;;;;5118609;28;20373;-53
2022/07/12 05:10:35;;;;;;;16.02;4.38;;;13.50;99.90;;;;;;5118289;28;20019;-53
2022/07/12 05:13:01;;;;;;;16.05;5.15;;;13.60;99.90;;;;;;5118140;28;20448;-53
2022/07/12 05:15:27;;;;;;;12.13;4.25;;;13.70;99.90;;;;;;5100353;28;20548;-53
2022/07/12 05:17:53;;;;;;;9.65;3.97;;;13.80;99.90;;;;;;5099686;28;20118;-53
2022/07/12 05:20:19;;;;;;;15.05;3.60;;;13.90;99.90;;;;;;5118470;28;20473;-53
2022/07/12 05:22:45;;;;;;;14.75;5.70;;;14.00;99.90;;;;;;5118449;28;20023;-53
2022/07/12 05:25:11;;;;;;;20.35;5.38;;;14.10;99.90;;;;;;5118324;28;20419;-53
2022/07/12 05:27:40;;;;;;;12.18;4.90;;;14.20;99.90;;;;;;5117734;28;20493;-53
2022/07/12 05:30:07;;;;;;;15.27;4.75;;;14.30;99.90;;;;;;5094690;28;20040;-53
2022/07/12 05:32:32;;;;;;;11.23;4.50;;;14.50;99.90;;;;;;5097688;28;20032;-53
2022/07/12 05:34:58;;;;;;;19.30;4.60;;;14.60;99.90;;;;;;5097082;28;20032;-53
2022/07/12 05:37:25;;;;;;;10.85;4.28;;;14.70;99.90;;;;;;5094213;28;20024;-53
2022/07/12 05:39:51;;;;;;;9.88;4.25;;;14.90;99.90;;;;;;5084808;28;20077;-53
2022/07/12 05:42:18;;;;;;;14.02;4.97;;;14.90;99.90;;;;;;5084501;28;20028;-53
2022/07/12 05:44:44;;;;;;;10.45;4.15;;;15.00;99.90;;;;;;5077243;28;20052;-53
2022/07/12 05:47:10;;;;;;;21.70;5.75;;;15.00;99.50;;;;;;5081592;28;20050;-53
2022/07/12 05:49:36;;;;;;;12.30;4.05;;;15.20;99.60;;;;;;5097429;28;20485;-53
2022/07/12 05:54:46;;;;;;;10.85;4.15;;;15.50;98.80;;;;;;5090205;28;20123;-53
2022/07/12 05:57:12;;;;;;;8.98;3.75;;;15.70;99.40;;;;;;5083166;28;20085;-53
2022/07/12 05:59:38;;;;;;;11.65;4.18;;;15.90;99.30;;;;;;5096334;28;20028;-53
2022/07/12 06:02:04;;;;;;;23.85;5.43;;;16.00;98.10;;;;;;5096904;28;20082;-53
2022/07/12 06:04:30;;;;;;;13.80;4.10;;;16.10;97.70;;;;;;5089876;28;20024;-53
2022/07/12 06:06:56;;;;;;;16.83;5.05;;;16.30;96.70;;;;;;5076138;28;20409;-53
2022/07/12 06:09:22;;;;;;;13.32;4.53;;;16.50;95.80;;;;;;5079808;28;20024;-53
2022/07/12 06:11:48;;;;;;;10.85;3.78;;;16.60;95.30;;;;;;5090254;28;20505;-53
2022/07/12 06:14:14;;;;;;;10.75;4.60;;;16.80;94.40;;;;;;5087080;28;20461;-53
2022/07/12 06:16:40;;;;;;;8.70;4.40;;;17.00;94.10;;;;;;5094279;28;20032;-53
2022/07/12 06:19:06;;;;;;;18.58;6.93;;;17.20;93.60;;;;;;5087398;28;20127;-53
2022/07/12 06:21:33;;;;;;;10.85;3.50;;;17.30;91.70;;;;;;5082847;28;20059;-53
2022/07/12 06:23:59;;;;;;;4.90;2.65;;;17.40;87.50;;;;;;5088506;28;20031;-53
2022/07/12 06:26:25;;;;;;;12.02;3.92;;;17.50;84.20;;;;;;5088383;28;20530;-53
2022/07/12 06:28:51;;;;;;;7.00;3.53;;;17.60;84.80;;;;;;5080037;28;20377;-53
2022/07/12 06:31:17;;;;;;;14.73;4.00;;;17.80;84.30;;;;;;5087354;28;20024;-53
2022/07/12 06:33:43;;;;;;;9.07;2.92;;;17.80;82.20;;;;;;5085782;28;20107;-53
2022/07/12 06:36:09;;;;;;;10.38;3.45;;;17.80;82.10;;;;;;5087642;28;20052;-53
2022/07/12 06:38:35;;;;;;;22.05;4.63;;;17.90;84.70;;;;;;5088115;28;20039;-53
2022/07/12 06:41:01;;;;;;;14.50;3.40;;;18.10;82.30;;;;;;5087448;28;20024;-53
2022/07/12 06:43:27;;;;;;;9.63;3.60;;;18.50;80.00;;;;;;5083224;28;20024;-53
2022/07/12 06:45:53;;;;;;;6.40;2.63;;;18.60;75.50;;;;;;5086440;28;20031;-53
2022/07/12 06:48:19;;;;;;;7.63;3.33;;;18.90;77.60;;;;;;5097176;28;20027;-53
2022/07/12 06:50:45;;;;;;;8.50;3.20;;;19.10;74.80;;;;;;5090480;28;20031;-53
2022/07/12 06:53:12;;;;;;;8.60;3.05;;;19.10;74.20;;;;;;5079407;28;20536;-53
2022/07/12 06:55:38;;;;;;;9.25;3.97;;;19.30;74.30;;;;;;5095019;28;20062;-53
2022/07/12 06:58:04;;;;;;;17.65;3.97;;;19.30;69.10;;;;;;5095825;28;20028;-53
2022/07/12 07:00:30;;;;;;;16.20;3.50;;;19.30;69.90;;;;;;5070641;28;20031;-53
2022/07/12 07:02:57;;;;;;;12.05;3.50;;;19.60;70.50;;;;;;5096133;28;20145;-53
2022/07/12 07:05:23;;;;;;;5.72;2.63;;;19.90;69.00;;;;;;5107819;28;20066;-54
2022/07/12 07:07:49;;;;;;;15.98;3.40;;;20.20;67.50;;;;;;5086537;28;20032;-54
2022/07/12 07:10:18;;;;;;;9.85;3.40;;;20.40;65.60;;;;;;5101688;28;20042;-53
2022/07/12 07:12:47;;;;;;;9.18;2.95;;;20.70;65.30;;;;;;5103738;28;20465;-53
2022/07/12 07:15:15;;;;;;;20.20;3.88;;;21.00;62.50;;;;;;5107510;28;20421;-54
2022/07/12 07:17:42;;;;;;;15.88;3.13;;;21.20;63.80;;;;;;5099872;28;20083;-54
2022/07/12 07:20:10;;;;;;;18.35;3.30;;;21.60;63.10;;;;;;5077366;28;20020;-54
2022/07/12 07:22:36;;;;;;;12.13;3.40;;;21.60;60.30;;;;;;5088019;28;20052;-54
2022/07/12 07:25:02;;;;;;;15.73;3.65;;;22.10;62.70;;;;;;5086035;28;20048;-54
2022/07/12 07:27:27;;;;;;;17.10;4.43;;;22.20;60.40;;;;;;5090408;28;20016;-54
2022/07/12 07:32:38;;;;;;;7.60;2.85;;;22.90;59.20;;;;;;5102382;28;20489;-54
2022/07/12 07:35:05;;;;;;;13.80;3.55;;;22.80;56.90;;;;;;5091318;28;20032;-54
2022/07/12 07:37:35;;;;;;;10.65;3.15;;;22.80;57.50;;;;;;5093210;28;20028;-54
2022/07/12 07:40:02;;;;;;;13.63;3.45;;;22.80;57.70;;;;;;5088045;28;20058;-54
2022/07/12 07:42:28;;;;;;;8.88;2.33;;;23.20;56.10;;;;;;5083890;28;20432;-54
2022/07/12 07:44:54;;;;;;;10.85;2.38;;;23.50;54.40;;;;;;5094382;28;20103;-54
2022/07/12 07:47:23;;;;;;;5.93;2.13;;;23.70;53.80;;;;;;5096299;28;20583;-54
2022/07/12 07:49:49;;;;;;;11.85;2.40;;;24.00;53.00;;;;;;5083389;28;20028;-54
2022/07/12 07:52:15;;;;;;;9.18;2.10;;;24.20;51.80;;;;;;5077921;28;20038;-54
2022/07/12 07:54:40;;;;;;;11.02;3.08;;;24.60;53.00;;;;;;5083517;28;20024;-54
2022/07/12 07:57:09;;;;;;;9.45;3.05;;;24.70;52.00;;;;;;5084115;28;20028;-54
2022/07/12 07:59:36;;;;;;;8.32;2.80;;;24.60;50.80;;;;;;5085269;28;20424;-54
2022/07/12 08:02:34;;;;;;;10.20;2.42;;;25.00;53.00;;;;;;5068947;28;20067;-54
2022/07/12 08:05:00;;;;;;;13.90;3.15;;;25.20;50.20;;;;;;5089356;28;20060;-54
2022/07/12 08:07:26;;;;;;;21.08;4.60;;;25.40;51.30;;;;;;5089210;28;20058;-54
2022/07/12 08:09:52;;;;;;;10.70;2.38;;;25.90;49.40;;;;;;5094021;28;20031;-54
2022/07/12 08:12:18;;;;;;;13.02;3.00;;;26.00;48.90;;;;;;5091824;28;20068;-54
2022/07/12 08:14:44;;;;;;;9.52;1.98;;;26.00;49.10;;;;;;5092399;28;20024;-54
2022/07/12 08:17:13;;;;;;;8.68;2.60;;;26.10;46.60;;;;;;5093458;28;20028;-54
2022/07/12 08:19:39;;;;;;;9.05;3.10;;;25.50;47.50;;;;;;5081893;28;20036;-54
2022/07/12 08:22:07;;;;;;;8.55;2.85;;;25.80;47.00;;;;;;5097758;28;20035;-54
2022/07/12 08:24:33;;;;;;;8.60;3.38;;;25.40;48.60;;;;;;5091746;28;20028;-54
2022/07/12 08:26:59;;;;;;;16.80;3.63;;;26.10;48.40;;;;;;5090852;28;20030;-54
2022/07/12 08:29:25;;;;;;;7.85;2.70;;;26.60;47.70;;;;;;5108313;28;20514;-54
2022/07/12 08:31:51;;;;;;;11.77;2.70;;;26.70;45.90;;;;;;5076157;28;20090;-54
2022/07/12 08:34:17;;;;;;;14.52;3.83;;;26.40;44.40;;;;;;5090762;28;20025;-54
2022/07/12 08:36:46;;;;;;;11.35;4.05;;;26.40;46.00;;;;;;5086988;28;20039;-54
2022/07/12 08:39:12;;;;;;;15.80;3.60;;;26.90;44.60;;;;;;5104680;28;20066;-54
2022/07/12 08:41:38;;;;;;;16.05;3.50;;;27.30;45.00;;;;;;5094494;28;20394;-54
2022/07/12 08:44:04;;;;;;;11.95;3.47;;;27.30;42.10;;;;;;5089073;28;20039;-54
2022/07/12 08:46:30;;;;;;;9.85;2.35;;;26.40;40.90;;;;;;5093173;28;20056;-54
2022/07/12 08:48:56;;;;;;;9.95;2.45;;;26.40;41.70;;;;;;5103835;28;20027;-54
2022/07/12 08:51:22;;;;;;;11.60;2.78;;;26.60;41.40;;;;;;5089276;28;20020;-54
2022/07/12 08:54:09;;;;;;;20.20;4.25;;;26.80;43.60;;;;;;5090614;28;20073;-54
2022/07/12 08:56:37;;;;;;;14.10;3.25;;;27.50;41.20;;;;;;5098850;28;20028;-54
2022/07/12 08:59:17;;;;;;;8.52;2.03;;;28.00;41.00;;;;;;5086735;28;20035;-54
2022/07/12 09:01:44;;;;;;;7.88;2.22;;;27.90;39.00;;;;;;5092457;28;20385;-54
2022/07/12 09:04:11;;;;;;;12.85;3.38;;;28.10;37.30;;;;;;5085004;28;20119;-54
2022/07/12 09:06:37;;;;;;;9.88;2.65;;;28.40;36.00;;;;;;5085409;28;20020;-54
2022/07/12 09:09:03;;;;;;;9.18;2.60;;;28.50;35.80;;;;;;5092741;28;20358;-54
2022/07/12 09:11:29;;;;;;;8.63;2.58;;;28.60;36.10;;;;;;5089026;28;20161;-54
2022/07/12 09:13:56;;;;;;;11.95;2.88;;;28.70;35.50;;;;;;5094008;28;20022;-54
2022/07/12 09:16:26;;;;;;;9.75;3.25;;;28.20;34.50;;;;;;5083807;28;20032;-54
2022/07/12 09:19:16;;;;;;;12.40;3.70;;;28.60;34.70;;;;;;5093892;28;20044;-54
2022/07/12 09:21:52;;;;;;;10.57;3.65;;;28.70;35.80;;;;;;5092474;28;20115;-54
2022/07/12 09:24:19;;;;;;;7.65;2.83;;;28.40;34.50;;;;;;5087234;28;20362;-54
2022/07/12 09:26:46;;;;;;;9.65;2.60;;;29.00;34.70;;;;;;5113429;28;20526;-54
2022/07/12 09:29:13;;;;;;;9.18;1.85;;;29.20;33.60;;;;;;5113579;28;20111;-54
2022/07/12 09:37:17;;;;;;;4.97;2.10;;;29.10;33.00;;;;;;5113234;28;20027;-54
2022/07/12 09:39:43;;;;;;;8.80;2.75;;;29.00;33.70;;;;;;5106794;28;20028;-54
2022/07/12 09:42:11;;;;;;;15.18;3.38;;;29.00;33.10;;;;;;5092592;28;20373;-54
2022/07/12 09:44:38;;;;;;;8.80;2.97;;;29.10;35.50;;;;;;5093664;28;20020;-54
2022/07/12 09:47:06;;;;;;;7.20;2.40;;;29.20;33.20;;;;;;5106993;28;20032;-54
2022/07/12 09:49:35;;;;;;;8.55;2.45;;;29.00;31.90;;;;;;5113909;28;20296;-54
2022/07/12 09:52:03;;;;;;;9.13;2.15;;;28.90;34.10;;;;;;5109355;28;20044;-54
2022/07/12 09:54:31;;;;;;;16.08;3.83;;;29.40;33.90;;;;;;5092003;28;20036;-54
2022/07/12 09:56:59;;;;;;;4.80;1.40;;;29.60;31.80;;;;;;5085613;28;20437;-54
2022/07/12 09:59:28;;;;;;;3.63;1.38;;;29.00;32.20;;;;;;5090884;28;20039;-54
2022/07/12 10:01:59;;;;;;;3.63;1.75;;;29.00;32.90;;;;;;5079689;28;20025;-54
2022/07/12 10:04:32;;;;;;;3.85;1.85;;;29.00;32.00;;;;;;5093780;28;20063;-54
2022/07/12 10:06:58;;;;;;;6.10;1.70;;;29.10;33.10;;;;;;5088965;28;20024;-54
2022/07/12 10:09:26;;;;;;;8.52;1.63;;;28.70;32.00;;;;;;5096724;28;20028;-54
2022/07/12 10:11:53;;;;;;;8.13;1.42;;;28.50;33.20;;;;;;5090185;28;20394;-54
2022/07/12 10:14:21;;;;;;;3.90;1.42;;;28.80;34.10;;;;;;5089793;28;20024;-54
2022/07/12 10:16:50;;;;;;;4.95;1.35;;;28.90;32.10;;;;;;5095532;28;20055;-54
2022/07/12 10:19:28;;;;;;;7.53;1.97;;;28.80;33.00;;;;;;5089284;28;20540;-54
2022/07/12 10:21:58;;;;;;;4.43;1.52;;;28.90;35.30;;;;;;5094667;28;20746;-54
2022/07/12 10:24:33;;;;;;;8.70;3.35;;;29.10;32.70;;;;;;5097947;28;20024;-54
2022/07/12 10:27:00;;;;;;;137.27;78.05;;;29.10;34.20;;;;;;5094991;28;20036;-54
2022/07/12 10:29:26;;;;;;;9.73;3.47;;;29.70;33.40;;;;;;5090598;28;20104;-54
2022/07/12 10:31:52;;;;;;;5.55;2.55;;;30.00;35.00;;;;;;5090985;28;20032;-54
2022/07/12 10:34:23;;;;;;;15.07;8.02;;;30.30;34.80;;;;;;5090106;28;20032;-54
2022/07/12 10:36:55;;;;;;;4.95;2.03;;;30.10;32.40;;;;;;5085719;28;20024;-54
2022/07/12 10:39:28;;;;;;;5.53;1.80;;;30.20;30.30;;;;;;5086992;28;20440;-54
2022/07/12 10:42:06;;;;;;;5.82;2.20;;;28.90;32.00;;;;;;5093579;28;20474;-54
2022/07/12 10:44:44;;;;;;;6.70;2.65;;;29.20;33.40;;;;;;5093816;28;20373;-54
2022/07/12 10:47:15;;;;;;;4.00;1.15;;;29.20;32.90;;;;;;5090236;28;20060;-54
2022/07/12 10:49:52;;;;;;;4.07;1.25;;;29.60;31.40;;;;;;5090290;28;20024;-54
2022/07/12 10:52:25;;;;;;;4.50;1.00;;;29.80;32.00;;;;;;5087382;28;20028;-54
2022/07/12 10:54:57;;;;;;;6.35;1.30;;;29.50;31.70;;;;;;5089925;28;20020;-54
2022/07/12 10:57:46;;;;;;;2.83;1.00;;;29.20;32.40;;;;;;5098661;28;20028;-54
2022/07/12 11:00:14;;;;;;;7.53;1.57;;;28.60;32.80;;;;;;5096558;28;20031;-54
2022/07/12 11:02:43;;;;;;;12.95;2.50;;;28.40;33.20;;;;;;5094525;28;20472;-54
2022/07/12 11:05:09;;;;;;;7.82;1.45;;;28.30;34.50;;;;;;5094731;28;20035;-54
2022/07/12 11:07:39;;;;;;;2.70;1.30;;;28.00;34.30;;;;;;5095460;28;20065;-54
2022/07/12 11:10:06;;;;;;;6.13;2.00;;;27.30;34.10;;;;;;5095146;28;20081;-54
2022/07/12 11:12:36;;;;;;;3.85;1.05;;;27.60;35.60;;;;;;5093937;28;20081;-54
2022/07/12 11:15:08;;;;;;;7.68;1.50;;;28.00;36.60;;;;;;5095261;28;20366;-54
2022/07/12 11:17:34;;;;;;;5.68;1.60;;;28.00;36.90;;;;;;5088321;28;20466;-55
2022/07/12 11:20:11;;;;;;;4.03;1.58;;;28.10;37.80;;;;;;5086379;28;20107;-54
2022/07/12 11:22:42;;;;;;;10.48;3.00;;;28.30;37.20;;;;;;5095291;28;20548;-54
2022/07/12 11:25:12;;;;;;;;;;;28.30;37.20;;;;;;5095417;28;20087;-54
2022/07/12 11:27:38;;;;;;;2.95;1.10;;;28.10;34.90;;;;;;5090184;28;19956;-54
2022/07/12 11:30:05;;;;;;;6.00;1.60;;;27.40;35.40;;;;;;5086286;28;20030;-54
2022/07/12 11:32:39;;;;;;;9.27;1.80;;;27.60;35.70;;;;;;5095074;28;20032;-54
2022/07/12 11:35:18;;;;;;;6.50;1.70;;;27.60;35.10;;;;;;5095371;28;20028;-54
2022/07/12 11:37:57;;;;;;;3.65;1.30;;;27.40;36.50;;;;;;5095458;28;20032;-54
2022/07/12 11:40:30;;;;;;;1.63;1.02;;;27.80;37.40;;;;;;5090444;28;20020;-54
2022/07/12 11:42:58;;;;;;;10.68;2.55;;;28.10;36.10;;;;;;5094336;28;20028;-54
2022/07/12 11:45:28;;;;;;;5.80;1.50;;;28.40;35.60;;;;;;5095211;28;20032;-54
2022/07/12 11:47:56;;;;;;;4.13;1.30;;;28.80;34.30;;;;;;5095166;28;20024;-54
2022/07/12 11:50:22;;;;;;;4.65;1.30;;;28.90;33.10;;;;;;5095185;28;20044;-54
2022/07/12 11:52:48;;;;;;;4.05;1.65;;;29.20;32.90;;;;;;5094283;28;20953;-54
2022/07/12 11:55:14;;;;;;;4.57;1.25;;;29.20;33.10;;;;;;5090846;28;20114;-54
2022/07/12 11:57:40;;;;;;;3.05;1.45;;;29.60;33.00;;;;;;5087375;28;20024;-54
2022/07/12 12:00:25;;;;;;;2.92;1.13;;;29.60;33.20;;;;;;5093216;28;20066;-54
2022/07/12 12:02:53;;;;;;;7.68;1.52;;;29.70;32.10;;;;;;5094009;28;20116;-54
2022/07/12 12:05:20;;;;;;;6.32;1.48;;;29.70;32.60;;;;;;5093345;28;20371;-54
2022/07/12 12:07:47;;;;;;;2.75;0.90;;;29.70;31.20;;;;;;5094865;28;20028;-54
2022/07/12 12:10:15;;;;;;;8.23;1.70;;;29.40;31.20;;;;;;5094943;28;20020;-54
2022/07/12 12:12:47;;;;;;;3.08;1.90;;;29.50;32.00;;;;;;5092542;28;20369;-54
2022/07/12 12:15:16;;;;;;;3.17;1.50;;;30.10;31.20;;;;;;5087504;28;20529;-54
2022/07/12 12:17:54;;;;;;;11.27;2.17;;;30.30;31.80;;;;;;5081224;28;20027;-55
2022/07/12 12:20:25;;;;;;;8.52;1.95;;;30.60;33.30;;;;;;5093646;28;20065;-54
2022/07/12 12:22:53;;;;;;;9.52;3.15;;;30.80;31.10;;;;;;5094223;28;20486;-54
2022/07/12 12:25:20;;;;;;;11.30;2.08;;;31.20;31.40;;;;;;5108763;28;20024;-54
2022/07/12 12:27:54;;;;;;;5.20;1.00;;;30.50;29.70;;;;;;5115095;28;20028;-54
2022/07/12 12:30:20;;;;;;;2.28;1.20;;;29.80;30.40;;;;;;5114734;28;20037;-54
2022/07/12 12:32:47;;;;;;;1.63;1.00;;;29.70;32.10;;;;;;5106811;28;20035;-54
2022/07/12 12:35:15;;;;;;;11.48;1.70;;;30.50;32.10;;;;;;5080368;28;20067;-54
2022/07/12 12:37:50;;;;;;;3.80;1.10;;;30.60;30.70;;;;;;5088431;28;20111;-54
2022/07/12 12:40:20;;;;;;;4.60;1.10;;;30.40;30.00;;;;;;5094490;28;20028;-54
2022/07/12 12:42:47;;;;;;;5.72;0.98;;;30.50;30.00;;;;;;5083783;28;20124;-54
2022/07/12 12:45:20;;;;;;;8.02;1.38;;;30.60;30.60;;;;;;5091638;28;20462;-54
2022/07/12 12:47:54;;;;;;;6.90;1.60;;;31.10;30.50;;;;;;5093719;28;20039;-54
2022/07/12 12:50:42;;;;;;;4.25;1.85;;;31.00;29.70;;;;;;5094215;28;20099;-54
2022/07/12 12:53:22;;;;;;;4.10;1.30;;;30.80;29.60;;;;;;5094045;28;20039;-54
2022/07/12 12:55:54;;;;;;;6.93;1.77;;;31.00;31.50;;;;;;5074178;28;20028;-54
2022/07/12 12:58:22;;;;;;;2.63;0.90;;;31.30;31.10;;;;;;5088253;28;20040;-54